createdAt,value
2018-01-18T00:00:15.265Z,41.70
2018-01-18T00:02:48.582Z,41.70
2018-01-18T00:05:21.060Z,41.70
2018-01-18T00:07:53.643Z,41.70
2018-01-18T00:10:26.116Z,41.70
2018-01-18T00:12:59.492Z,41.90
2018-01-18T00:15:31.927Z,41.70
2018-01-18T00:18:04.455Z,41.80
2018-01-18T00:20:36.977Z,41.70
2018-01-18T00:23:10.316Z,41.80
2018-01-18T00:25:42.844Z,41.70
2018-01-18T00:28:15.336Z,41.70
2018-01-18T00:30:47.895Z,41.70
2018-01-18T00:33:21.225Z,41.80
2018-01-18T00:35:53.708Z,41.70
2018-01-18T00:38:26.245Z,41.70
2018-01-18T00:40:59.459Z,41.80
2018-01-18T00:43:32.757Z,41.70
2018-01-18T00:46:05.220Z,41.70
2018-01-18T00:48:37.820Z,41.70
2018-01-18T00:51:10.410Z,41.60
2018-01-18T00:53:42.887Z,41.60
2018-01-18T00:56:15.436Z,41.70
2018-01-18T00:58:47.872Z,41.70
2018-01-18T01:01:20.344Z,41.70
2018-01-18T01:03:52.991Z,41.70
2018-01-18T01:06:25.548Z,41.70
2018-01-18T01:08:57.895Z,42.40
2018-01-18T01:11:30.440Z,41.60
2018-01-18T01:14:03.763Z,41.60
2018-01-18T01:16:36.250Z,41.60
2018-01-18T01:19:08.848Z,41.60
2018-01-18T01:21:41.352Z,41.60
2018-01-18T01:24:14.583Z,41.60
2018-01-18T01:26:47.852Z,41.70
2018-01-18T01:29:21.163Z,41.60
2018-01-18T01:31:54.439Z,42.20
2018-01-18T01:34:27.088Z,41.60
2018-01-18T01:36:59.528Z,41.70
2018-01-18T01:39:32.059Z,41.60
2018-01-18T01:42:04.564Z,41.60
2018-01-18T01:44:37.167Z,41.60
2018-01-18T01:47:09.692Z,41.60
2018-01-18T01:49:42.256Z,41.60
2018-01-18T01:52:14.760Z,41.60
2018-01-18T01:54:47.111Z,41.60
2018-01-18T01:57:19.690Z,41.60
2018-01-18T01:59:53.101Z,41.50
2018-01-18T02:02:25.519Z,41.50
2018-01-18T02:04:57.989Z,41.50
2018-01-18T02:07:30.499Z,41.50
2018-01-18T02:10:03.165Z,41.50
2018-01-18T02:12:36.386Z,41.50
2018-01-18T02:15:08.872Z,41.50
2018-01-18T02:17:42.236Z,41.50
2018-01-18T02:20:14.756Z,41.50
2018-01-18T02:22:47.299Z,41.50
2018-01-18T02:25:19.814Z,41.50
2018-01-18T02:27:52.336Z,41.50
2018-01-18T02:30:24.973Z,41.50
2018-01-18T02:32:57.473Z,41.50
2018-01-18T02:35:30.006Z,41.50
2018-01-18T02:38:02.600Z,41.40
2018-01-18T02:40:35.065Z,41.50
2018-01-18T02:43:08.404Z,41.50
2018-01-18T02:45:40.767Z,41.50
2018-01-18T02:48:13.321Z,41.50
2018-01-18T02:50:45.886Z,41.50
2018-01-18T02:53:18.408Z,41.40
2018-01-18T02:55:50.958Z,41.40
2018-01-18T02:58:23.488Z,41.40
2018-01-18T03:00:56.043Z,41.50
2018-01-18T03:03:28.643Z,41.50
2018-01-18T03:06:01.920Z,41.50
2018-01-18T03:08:34.447Z,41.40
2018-01-18T03:11:07.675Z,41.50
2018-01-18T03:13:40.112Z,41.40
2018-01-18T03:16:13.435Z,42.00
2018-01-18T03:18:45.916Z,41.50
2018-01-18T03:21:18.480Z,41.40
2018-01-18T03:23:51.772Z,41.50
2018-01-18T03:26:24.180Z,41.50
2018-01-18T03:28:57.529Z,41.50
2018-01-18T03:31:30.838Z,42.10
2018-01-18T03:34:03.320Z,41.50
2018-01-18T03:36:35.928Z,41.40
2018-01-18T03:39:08.477Z,41.40
2018-01-18T03:41:41.076Z,41.40
2018-01-18T03:44:13.527Z,41.90
2018-01-18T03:46:46.028Z,41.50
2018-01-18T03:49:19.364Z,42.00
2018-01-18T03:51:51.902Z,41.40
2018-01-18T03:54:25.240Z,41.40
2018-01-18T03:56:57.760Z,41.40
2018-01-18T03:59:30.260Z,41.40
2018-01-18T04:02:03.493Z,41.50
2018-01-18T04:04:35.984Z,41.40
2018-01-18T04:07:08.440Z,41.30
2018-01-18T04:09:40.994Z,41.40
2018-01-18T04:12:13.509Z,41.30
2018-01-18T04:14:46.092Z,41.40
2018-01-18T04:17:18.891Z,41.30
2018-01-18T04:19:51.288Z,41.40
2018-01-18T04:22:23.926Z,41.40
2018-01-18T04:24:56.475Z,41.50
2018-01-18T04:27:28.859Z,41.40
2018-01-18T04:30:01.388Z,41.50
2018-01-18T04:32:33.912Z,41.40
2018-01-18T04:35:07.252Z,42.10
2018-01-18T04:37:39.620Z,41.40
2018-01-18T04:40:12.148Z,41.40
2018-01-18T04:42:44.704Z,41.90
2018-01-18T04:45:17.176Z,41.50
2018-01-18T04:47:49.549Z,41.40
2018-01-18T04:50:22.135Z,41.40
2018-01-18T04:52:55.416Z,41.50
2018-01-18T04:55:28.688Z,41.40
2018-01-18T04:58:01.104Z,41.30
2018-01-18T05:00:33.631Z,41.30
2018-01-18T05:03:06.256Z,41.40
2018-01-18T05:05:39.509Z,41.40
2018-01-18T05:08:12.814Z,41.40
2018-01-18T05:10:46.083Z,41.30
2018-01-18T05:13:18.551Z,41.20
2018-01-18T05:15:50.857Z,41.40
2018-01-18T05:18:23.491Z,41.40
2018-01-18T05:20:56.016Z,41.40
2018-01-18T05:23:29.188Z,41.40
2018-01-18T05:26:02.464Z,41.40
2018-01-18T05:28:35.031Z,41.40
2018-01-18T05:31:07.547Z,41.30
2018-01-18T05:33:40.096Z,41.30
2018-01-18T05:36:12.659Z,41.40
2018-01-18T05:38:45.296Z,41.40
2018-01-18T05:41:18.540Z,41.30
2018-01-18T05:43:51.058Z,41.30
2018-01-18T05:46:23.605Z,41.40
2018-01-18T05:48:56.140Z,41.40
2018-01-18T05:51:28.560Z,41.40
2018-01-18T05:54:01.099Z,41.40
2018-01-18T05:56:34.495Z,40.90
2018-01-18T05:59:07.245Z,41.40
2018-01-18T06:01:40.470Z,41.40
2018-01-18T06:04:13.031Z,41.30
2018-01-18T06:06:46.336Z,41.40
2018-01-18T06:09:18.843Z,41.30
2018-01-18T06:11:51.273Z,41.40
2018-01-18T06:14:24.597Z,41.50
2018-01-18T06:16:57.868Z,41.50
2018-01-18T06:19:31.225Z,41.60
2018-01-18T06:22:03.656Z,41.50
2018-01-18T06:24:36.148Z,41.40
2018-01-18T06:27:08.716Z,41.40
2018-01-18T06:29:41.280Z,41.30
2018-01-18T06:32:13.756Z,41.50
2018-01-18T06:34:46.264Z,41.50
2018-01-18T06:37:19.595Z,41.40
2018-01-18T06:39:51.981Z,41.30
2018-01-18T06:42:24.538Z,41.30
2018-01-18T06:44:57.884Z,41.10
2018-01-18T06:47:30.345Z,41.50
2018-01-18T06:50:03.060Z,41.40
2018-01-18T06:52:36.383Z,41.50
2018-01-18T06:55:09.017Z,41.50
2018-01-18T06:57:41.611Z,41.40
2018-01-18T07:00:14.215Z,41.50
2018-01-18T07:02:46.823Z,41.50
2018-01-18T07:05:20.200Z,41.40
2018-01-18T07:07:52.681Z,41.40
2018-01-18T07:10:25.245Z,41.50
2018-01-18T07:12:57.722Z,41.50
2018-01-18T07:15:30.124Z,41.40
2018-01-18T07:18:02.624Z,41.50
2018-01-18T07:20:35.229Z,41.50
2018-01-18T07:23:09.236Z,41.50
2018-01-18T07:25:41.648Z,41.50
2018-01-18T07:28:14.208Z,41.50
2018-01-18T07:30:46.580Z,41.50
2018-01-18T07:33:19.036Z,41.50
2018-01-18T07:35:51.620Z,41.50
2018-01-18T07:38:24.099Z,41.50
2018-01-18T07:40:56.450Z,41.50
2018-01-18T07:43:29.010Z,41.40
2018-01-18T07:46:01.577Z,41.50
2018-01-18T07:48:34.083Z,41.40
2018-01-18T07:51:06.624Z,41.60
2018-01-18T07:53:39.113Z,41.60
2018-01-18T07:56:11.644Z,41.40
2018-01-18T07:58:44.184Z,41.60
2018-01-18T08:01:16.704Z,41.60
2018-01-18T08:03:49.095Z,41.60
2018-01-18T08:06:21.651Z,41.30
2018-01-18T08:08:54.973Z,41.60
2018-01-18T08:11:28.291Z,42.30
2018-01-18T08:14:00.885Z,41.50
2018-01-18T08:16:33.326Z,41.50
2018-01-18T08:19:06.685Z,41.50
2018-01-18T08:21:40.027Z,41.50
2018-01-18T08:24:13.292Z,41.50
2018-01-18T08:26:45.767Z,41.40
2018-01-18T08:29:18.383Z,41.50
2018-01-18T08:31:50.773Z,41.50
2018-01-18T08:34:23.222Z,41.50
2018-01-18T08:36:56.507Z,41.40
2018-01-18T08:39:29.773Z,41.40
2018-01-18T08:42:02.337Z,41.30
2018-01-18T08:44:34.851Z,41.50
2018-01-18T08:47:07.363Z,41.50
2018-01-18T08:49:40.688Z,42.00
2018-01-18T08:52:13.228Z,41.40
2018-01-18T08:54:45.733Z,41.40
2018-01-18T08:57:19.062Z,41.50
2018-01-18T08:59:51.584Z,41.50
2018-01-18T09:02:24.115Z,41.40
2018-01-18T09:04:56.692Z,41.40
2018-01-18T09:07:29.280Z,41.50
2018-01-18T09:10:01.791Z,41.40
2018-01-18T09:12:34.340Z,41.50
2018-01-18T09:15:06.893Z,41.40
2018-01-18T09:17:39.435Z,41.40
2018-01-18T09:20:12.048Z,41.50
2018-01-18T09:22:45.425Z,41.40
2018-01-18T09:25:18.699Z,41.50
2018-01-18T09:27:51.187Z,41.50
2018-01-18T09:30:23.722Z,41.50
2018-01-18T09:32:56.172Z,41.50
2018-01-18T09:35:29.517Z,41.50
2018-01-18T09:38:02.036Z,41.50
2018-01-18T09:40:34.636Z,41.50
2018-01-18T09:43:07.994Z,41.50
2018-01-18T09:45:40.468Z,41.50
2018-01-18T09:48:13.023Z,41.60
2018-01-18T09:50:46.316Z,41.60
2018-01-18T09:53:18.923Z,41.60
2018-01-18T09:55:51.532Z,41.50
2018-01-18T09:58:24.111Z,41.60
2018-01-18T10:00:56.639Z,41.60
2018-01-18T10:03:29.168Z,41.60
2018-01-18T10:06:01.687Z,41.70
2018-01-18T10:08:34.029Z,41.60
2018-01-18T10:11:07.319Z,41.70
2018-01-18T10:13:39.808Z,41.70
2018-01-18T10:16:13.072Z,41.70
2018-01-18T10:18:45.467Z,41.70
2018-01-18T10:21:18.731Z,41.80
2018-01-18T10:23:51.236Z,41.70
2018-01-18T10:26:23.873Z,41.70
2018-01-18T10:28:57.176Z,41.70
2018-01-18T10:31:29.700Z,41.70
2018-01-18T10:34:02.320Z,41.80
2018-01-18T10:36:34.787Z,41.80
2018-01-18T10:39:07.275Z,41.80
2018-01-18T10:41:39.810Z,41.70
2018-01-18T10:44:12.215Z,41.80
2018-01-18T10:46:44.805Z,41.70
2018-01-18T10:49:18.112Z,41.80
2018-01-18T10:51:50.568Z,41.70
2018-01-18T10:54:23.200Z,41.80
2018-01-18T10:56:55.796Z,41.70
2018-01-18T10:59:29.028Z,41.90
2018-01-18T11:02:01.556Z,41.80
2018-01-18T11:04:34.135Z,41.80
2018-01-18T11:07:06.640Z,41.80
2018-01-18T11:09:39.951Z,42.50
2018-01-18T11:12:12.428Z,41.90
2018-01-18T11:14:44.980Z,41.90
2018-01-18T11:17:18.268Z,41.90
2018-01-18T11:19:51.484Z,41.90
2018-01-18T11:22:24.757Z,41.90
2018-01-18T11:24:57.327Z,41.80
2018-01-18T11:27:29.871Z,41.90
2018-01-18T11:30:02.430Z,41.90
2018-01-18T11:32:35.676Z,42.00
2018-01-18T11:35:08.240Z,41.90
2018-01-18T11:37:40.859Z,41.90
2018-01-18T11:40:13.200Z,42.30
2018-01-18T11:42:46.492Z,41.90
2018-01-18T11:45:19.018Z,41.90
2018-01-18T11:47:52.248Z,42.00
2018-01-18T11:50:25.551Z,42.00
2018-01-18T11:52:58.840Z,41.90
2018-01-18T11:55:31.345Z,41.90
2018-01-18T11:58:03.816Z,41.90
2018-01-18T12:00:36.376Z,41.90
2018-01-18T12:03:09.625Z,42.00
2018-01-18T12:05:42.955Z,42.00
2018-01-18T12:08:16.231Z,42.00
2018-01-18T12:10:48.747Z,42.00
2018-01-18T12:13:21.172Z,42.00
2018-01-18T12:15:54.501Z,42.00
2018-01-18T12:18:26.952Z,42.00
2018-01-18T12:20:59.544Z,42.00
2018-01-18T12:23:32.388Z,42.00
2018-01-18T12:26:04.904Z,42.00
2018-01-18T12:28:37.367Z,42.00
2018-01-18T12:31:09.966Z,42.10
2018-01-18T12:33:42.388Z,42.10
2018-01-18T12:36:15.612Z,42.20
2018-01-18T12:38:48.875Z,42.10
2018-01-18T12:41:21.277Z,42.00
2018-01-18T12:43:53.912Z,42.10
2018-01-18T12:46:27.244Z,42.20
2018-01-18T12:48:59.734Z,42.10
2018-01-18T12:51:32.295Z,42.10
2018-01-18T12:54:04.812Z,42.10
2018-01-18T12:56:37.239Z,42.10
2018-01-18T12:59:09.771Z,42.10
2018-01-18T13:01:43.224Z,42.20
2018-01-18T13:04:15.755Z,42.20
2018-01-18T13:06:48.294Z,42.10
2018-01-18T13:09:20.893Z,42.20
2018-01-18T13:11:53.240Z,42.20
2018-01-18T13:14:25.691Z,42.20
2018-01-18T13:16:58.299Z,42.20
2018-01-18T13:19:30.727Z,42.20
2018-01-18T13:22:03.343Z,42.10
2018-01-18T13:24:36.571Z,42.20
2018-01-18T13:27:08.952Z,42.10
2018-01-18T13:29:42.964Z,42.20
2018-01-18T13:32:16.269Z,42.20
2018-01-18T13:34:48.766Z,42.10
2018-01-18T13:37:21.317Z,42.20
2018-01-18T13:39:53.904Z,42.20
2018-01-18T13:42:26.339Z,42.20
2018-01-18T13:44:58.843Z,42.20
2018-01-18T13:47:31.448Z,42.20
2018-01-18T13:50:03.904Z,42.20
2018-01-18T13:52:36.489Z,42.20
2018-01-18T13:55:09.079Z,42.20
2018-01-18T13:57:41.517Z,42.20
2018-01-18T14:00:14.044Z,42.20
2018-01-18T14:02:46.533Z,42.20
2018-01-18T14:05:18.996Z,42.30
2018-01-18T14:07:52.329Z,42.30
2018-01-18T14:10:25.600Z,42.30
2018-01-18T14:12:57.987Z,42.20
2018-01-18T14:15:30.474Z,42.30
2018-01-18T14:18:02.907Z,42.30
2018-01-18T14:20:35.420Z,42.30
2018-01-18T14:23:08.705Z,42.30
2018-01-18T14:25:41.147Z,42.30
2018-01-18T14:28:13.664Z,42.30
2018-01-18T14:30:47.201Z,42.30
2018-01-18T14:33:20.340Z,42.30
2018-01-18T14:35:52.819Z,42.30
2018-01-18T14:38:26.096Z,42.40
2018-01-18T14:40:58.573Z,42.40
2018-01-18T14:43:31.065Z,42.40
2018-01-18T14:46:03.644Z,42.40
2018-01-18T14:48:36.176Z,42.30
2018-01-18T14:51:09.476Z,42.30
2018-01-18T14:53:41.955Z,42.30
2018-01-18T14:56:14.433Z,42.40
2018-01-18T14:58:46.920Z,42.30
2018-01-18T15:01:19.436Z,42.40
2018-01-18T15:03:52.008Z,42.30
2018-01-18T15:06:24.554Z,42.40
2018-01-18T15:08:57.926Z,42.40
2018-01-18T15:11:31.196Z,42.40
2018-01-18T15:14:04.404Z,42.40
2018-01-18T15:16:37.678Z,42.40
2018-01-18T15:19:10.992Z,42.40
2018-01-18T15:21:44.285Z,42.40
2018-01-18T15:24:17.576Z,43.00
2018-01-18T15:26:50.075Z,42.30
2018-01-18T15:29:23.355Z,42.40
2018-01-18T15:31:55.840Z,42.40
2018-01-18T15:34:28.376Z,42.40
2018-01-18T15:37:01.592Z,42.40
2018-01-18T15:39:33.987Z,42.40
2018-01-18T15:42:06.567Z,42.40
2018-01-18T15:44:39.147Z,42.40
2018-01-18T15:47:12.486Z,42.40
2018-01-18T15:49:44.791Z,42.40
2018-01-18T15:52:18.051Z,43.00
2018-01-18T15:54:50.599Z,42.40
2018-01-18T15:57:23.128Z,42.40
2018-01-18T15:59:55.708Z,42.40
2018-01-18T16:02:28.292Z,42.40
2018-01-18T16:05:01.097Z,42.40
2018-01-18T16:07:34.412Z,42.50
2018-01-18T16:10:06.808Z,42.40
2018-01-18T16:12:39.327Z,42.40
2018-01-18T16:15:12.679Z,42.40
2018-01-18T16:17:45.159Z,42.40
2018-01-18T16:20:17.748Z,42.40
2018-01-18T16:22:50.316Z,42.40
2018-01-18T16:25:23.596Z,42.50
2018-01-18T16:27:56.871Z,42.40
2018-01-18T16:30:29.401Z,42.40
2018-01-18T16:33:01.932Z,42.40
2018-01-18T16:35:34.800Z,42.40
2018-01-18T16:38:07.272Z,42.40
2018-01-18T16:40:39.838Z,42.50
2018-01-18T16:43:12.399Z,42.50
2018-01-18T16:45:45.740Z,42.50
2018-01-18T16:48:19.004Z,42.40
2018-01-18T16:50:52.115Z,42.50
2018-01-18T16:53:24.604Z,42.50
2018-01-18T16:55:57.200Z,42.50
2018-01-18T16:58:30.544Z,42.50
2018-01-18T17:01:02.943Z,42.50
2018-01-18T17:03:35.508Z,42.50
2018-01-18T17:06:08.908Z,42.50
2018-01-18T17:08:41.508Z,42.50
2018-01-18T17:11:13.988Z,42.50
2018-01-18T17:13:46.523Z,42.40
2018-01-18T17:16:19.292Z,42.50
2018-01-18T17:18:51.756Z,42.50
2018-01-18T17:21:24.399Z,42.40
2018-01-18T17:23:56.945Z,43.10
2018-01-18T17:26:30.319Z,42.50
2018-01-18T17:29:02.776Z,42.40
2018-01-18T17:31:35.259Z,42.50
2018-01-18T17:34:07.755Z,42.40
2018-01-18T17:36:41.135Z,42.40
2018-01-18T17:39:13.632Z,42.40
2018-01-18T17:41:46.249Z,42.40
2018-01-18T17:44:18.743Z,42.50
2018-01-18T17:46:52.055Z,42.50
2018-01-18T17:49:25.324Z,42.70
2018-01-18T17:51:57.696Z,42.40
2018-01-18T17:54:30.196Z,42.40
2018-01-18T17:57:02.756Z,42.50
2018-01-18T17:59:35.304Z,42.40
2018-01-18T18:02:07.858Z,42.40
2018-01-18T18:04:40.423Z,42.50
2018-01-18T18:07:12.949Z,42.50
2018-01-18T18:09:46.232Z,41.90
2018-01-18T18:12:18.828Z,42.50
2018-01-18T18:14:51.321Z,42.50
2018-01-18T18:17:23.868Z,42.40
2018-01-18T18:19:56.483Z,42.50
2018-01-18T18:22:29.948Z,42.50
2018-01-18T18:25:03.724Z,42.50
2018-01-18T18:27:36.276Z,42.50
2018-01-18T18:30:09.625Z,42.50
2018-01-18T18:32:42.192Z,42.50
2018-01-18T18:35:15.579Z,42.90
2018-01-18T18:37:48.887Z,43.00
2018-01-18T18:40:21.430Z,42.40
2018-01-18T18:42:53.928Z,42.50
2018-01-18T18:45:27.275Z,42.50
2018-01-18T18:47:59.969Z,42.40
2018-01-18T18:50:32.512Z,42.40
2018-01-18T18:53:05.086Z,42.50
2018-01-18T18:55:38.336Z,42.50
2018-01-18T18:58:11.643Z,42.50
2018-01-18T19:00:44.916Z,42.90
2018-01-18T19:03:17.307Z,42.50
2018-01-18T19:05:49.656Z,42.50
2018-01-18T19:08:22.241Z,42.50
2018-01-18T19:10:54.771Z,42.50
2018-01-18T19:13:28.029Z,43.10
2018-01-18T19:16:00.530Z,42.50
2018-01-18T19:18:33.111Z,42.50
2018-01-18T19:21:05.632Z,42.50
2018-01-18T19:23:38.261Z,42.50
2018-01-18T19:26:10.759Z,42.50
2018-01-18T19:28:43.336Z,42.50
2018-01-18T19:31:15.804Z,42.50
2018-01-18T19:33:48.333Z,42.50
2018-01-18T19:36:20.806Z,42.50
2018-01-18T19:38:54.150Z,42.60
2018-01-18T19:41:27.307Z,42.50
2018-01-18T19:43:59.833Z,42.50
2018-01-18T19:46:32.303Z,42.50
2018-01-18T19:49:04.879Z,42.90
2018-01-18T19:51:37.401Z,42.50
2018-01-18T19:54:09.999Z,42.50
2018-01-18T19:56:43.127Z,42.50
2018-01-18T19:59:15.661Z,42.50
2018-01-18T20:01:48.247Z,42.50
2018-01-18T20:04:20.723Z,42.50
2018-01-18T20:06:53.208Z,42.50
2018-01-18T20:09:25.796Z,42.50
2018-01-18T20:11:58.412Z,42.50
2018-01-18T20:14:30.971Z,42.60
2018-01-18T20:17:03.507Z,42.50
2018-01-18T20:19:36.112Z,42.50
2018-01-18T20:22:08.646Z,42.50
2018-01-18T20:24:41.197Z,42.40
2018-01-18T20:27:13.802Z,42.40
2018-01-18T20:29:46.294Z,42.40
2018-01-18T20:32:18.842Z,42.50
2018-01-18T20:34:51.486Z,42.40
2018-01-18T20:37:23.855Z,42.50
2018-01-18T20:39:57.231Z,42.50
2018-01-18T20:42:30.548Z,42.50
2018-01-18T20:45:03.060Z,42.50
2018-01-18T20:47:35.595Z,42.50
2018-01-18T20:50:08.238Z,42.50
2018-01-18T20:52:40.782Z,42.50
2018-01-18T20:55:13.320Z,42.50
2018-01-18T20:57:45.787Z,42.50
2018-01-18T21:00:19.197Z,42.50
2018-01-18T21:02:51.699Z,42.50
2018-01-18T21:05:24.278Z,42.50
2018-01-18T21:07:56.660Z,42.50
2018-01-18T21:10:29.164Z,42.50
2018-01-18T21:13:01.786Z,42.50
2018-01-18T21:15:34.244Z,42.50
2018-01-18T21:18:07.591Z,42.60
2018-01-18T21:20:40.082Z,42.40
2018-01-18T21:23:12.618Z,42.40
2018-01-18T21:25:45.927Z,42.50
2018-01-18T21:28:18.491Z,42.50
2018-01-18T21:30:50.965Z,42.50
2018-01-18T21:33:23.432Z,42.50
2018-01-18T21:35:55.873Z,42.50
2018-01-18T21:38:28.439Z,42.50
2018-01-18T21:41:00.971Z,42.50
2018-01-18T21:43:33.539Z,42.50
2018-01-18T21:46:06.053Z,42.50
2018-01-18T21:48:38.643Z,42.50
2018-01-18T21:51:11.058Z,42.50
2018-01-18T21:53:44.320Z,42.50
2018-01-18T21:56:16.759Z,42.50
2018-01-18T21:58:49.228Z,42.50
2018-01-18T22:01:21.844Z,42.50
2018-01-18T22:03:54.388Z,43.10
2018-01-18T22:06:26.960Z,42.50
2018-01-18T22:08:59.536Z,42.50
2018-01-18T22:11:32.040Z,42.50
2018-01-18T22:14:05.383Z,42.50
2018-01-18T22:16:37.772Z,42.40
2018-01-18T22:19:10.292Z,42.50
2018-01-18T22:21:42.937Z,42.50
2018-01-18T22:24:15.393Z,43.10
2018-01-18T22:26:47.889Z,42.50
2018-01-18T22:29:20.405Z,42.50
2018-01-18T22:31:52.996Z,42.50
2018-01-18T22:34:25.519Z,42.50
2018-01-18T22:36:57.956Z,42.50
2018-01-18T22:39:30.511Z,42.50
2018-01-18T22:42:03.016Z,42.50
2018-01-18T22:44:36.299Z,42.40
2018-01-18T22:47:08.673Z,42.40
2018-01-18T22:49:41.264Z,42.50
2018-01-18T22:52:14.650Z,42.50
2018-01-18T22:54:47.912Z,42.50
2018-01-18T22:57:20.360Z,42.50
2018-01-18T22:59:52.904Z,42.50
2018-01-18T23:02:26.279Z,42.50
2018-01-18T23:04:58.821Z,42.50
2018-01-18T23:07:31.356Z,42.50
2018-01-18T23:10:03.819Z,42.50
2018-01-18T23:12:36.362Z,42.50
2018-01-18T23:15:09.646Z,42.50
2018-01-18T23:17:42.121Z,42.50
2018-01-18T23:20:14.715Z,42.50
2018-01-18T23:22:47.277Z,42.50
2018-01-18T23:25:20.568Z,42.50
2018-01-18T23:27:52.960Z,42.50
2018-01-18T23:30:25.432Z,42.50
2018-01-18T23:32:58.025Z,42.50
2018-01-18T23:35:31.382Z,42.50
2018-01-18T23:38:03.900Z,42.40
2018-01-18T23:40:36.432Z,42.50
2018-01-18T23:43:08.803Z,42.50
2018-01-18T23:45:42.099Z,42.60
2018-01-18T23:48:14.566Z,42.50
2018-01-18T23:50:47.861Z,42.50
2018-01-18T23:53:21.175Z,42.60
2018-01-18T23:55:54.437Z,43.10
2018-01-18T23:58:27.749Z,43.00
